sensor_id;sensor_type;location;lat;lon;timestamp;temperature;humidity
51982;DHT22;37998;53.416;6.730;2022-08-19T00:00:18;17.20;99.90
51982;DHT22;37998;53.416;6.730;2022-08-19T00:02:44;17.20;99.90
51982;DHT22;37998;53.416;6.730;2022-08-19T00:05:12;17.20;99.90
51982;DHT22;37998;53.416;6.730;2022-08-19T00:07:38;17.20;99.90
51982;DHT22;37998;53.416;6.730;2022-08-19T00:10:06;17.10;99.90
51982;DHT22;37998;53.416;6.730;2022-08-19T00:12:33;17.10;99.90
51982;DHT22;37998;53.416;6.730;2022-08-19T00:14:58;16.90;99.90
51982;DHT22;37998;53.416;6.730;2022-08-19T00:17:24;17.10;99.90
51982;DHT22;37998;53.416;6.730;2022-08-19T00:19:50;17.00;99.90
51982;DHT22;37998;53.416;6.730;2022-08-19T00:22:15;17.00;99.90
51982;DHT22;37998;53.416;6.730;2022-08-19T00:24:44;16.80;99.90
51982;DHT22;37998;53.416;6.730;2022-08-19T00:27:09;16.80;99.90
51982;DHT22;37998;53.416;6.730;2022-08-19T00:29:35;16.70;99.90
51982;DHT22;37998;53.416;6.730;2022-08-19T00:32:01;16.70;99.90
51982;DHT22;37998;53.416;6.730;2022-08-19T00:34:27;16.70;99.90
51982;DHT22;37998;53.416;6.730;2022-08-19T00:36:54;16.70;99.90
51982;DHT22;37998;53.416;6.730;2022-08-19T00:39:19;16.70;99.90
51982;DHT22;37998;53.416;6.730;2022-08-19T00:41:46;16.70;99.90
51982;DHT22;37998;53.416;6.730;2022-08-19T00:44:16;16.60;99.90
51982;DHT22;37998;53.416;6.730;2022-08-19T00:46:46;16.50;99.90
51982;DHT22;37998;53.416;6.730;2022-08-19T00:51:48;16.30;99.90
51982;DHT22;37998;53.416;6.730;2022-08-19T00:54:16;16.20;99.90
51982;DHT22;37998;53.416;6.730;2022-08-19T00:56:42;16.20;99.90
51982;DHT22;37998;53.416;6.730;2022-08-19T00:59:09;16.20;99.90
51982;DHT22;37998;53.416;6.730;2022-08-19T01:01:39;16.20;99.90
51982;DHT22;37998;53.416;6.730;2022-08-19T01:04:06;16.20;99.90
51982;DHT22;37998;53.416;6.730;2022-08-19T01:06:33;16.10;99.90
51982;DHT22;37998;53.416;6.730;2022-08-19T01:09:00;16.10;99.90
51982;DHT22;37998;53.416;6.730;2022-08-19T01:11:27;16.10;99.90
51982;DHT22;37998;53.416;6.730;2022-08-19T01:13:54;16.00;99.90
51982;DHT22;37998;53.416;6.730;2022-08-19T01:16:22;16.10;99.90
51982;DHT22;37998;53.416;6.730;2022-08-19T01:18:49;16.20;99.90
51982;DHT22;37998;53.416;6.730;2022-08-19T01:21:30;16.20;99.90
51982;DHT22;37998;53.416;6.730;2022-08-19T01:23:57;16.20;99.90
51982;DHT22;37998;53.416;6.730;2022-08-19T01:26:24;16.10;99.90
51982;DHT22;37998;53.416;6.730;2022-08-19T01:28:54;16.00;99.90
51982;DHT22;37998;53.416;6.730;2022-08-19T01:31:24;15.90;99.90
51982;DHT22;37998;53.416;6.730;2022-08-19T01:33:51;15.90;99.90
51982;DHT22;37998;53.416;6.730;2022-08-19T01:36:24;15.90;99.90
51982;DHT22;37998;53.416;6.730;2022-08-19T01:38:51;16.00;99.90
51982;DHT22;37998;53.416;6.730;2022-08-19T01:41:18;16.00;99.90
51982;DHT22;37998;53.416;6.730;2022-08-19T01:43:44;16.00;99.90
51982;DHT22;37998;53.416;6.730;2022-08-19T01:46:10;16.00;99.90
51982;DHT22;37998;53.416;6.730;2022-08-19T01:48:37;16.00;99.90
51982;DHT22;37998;53.416;6.730;2022-08-19T01:51:04;16.00;99.90
51982;DHT22;37998;53.416;6.730;2022-08-19T01:53:30;15.90;99.90
51982;DHT22;37998;53.416;6.730;2022-08-19T01:55:56;15.80;99.90
51982;DHT22;37998;53.416;6.730;2022-08-19T01:58:26;15.80;99.90
51982;DHT22;37998;53.416;6.730;2022-08-19T02:00:52;15.60;99.90
51982;DHT22;37998;53.416;6.730;2022-08-19T02:03:17;15.50;99.90
51982;DHT22;37998;53.416;6.730;2022-08-19T02:05:43;15.50;99.90
51982;DHT22;37998;53.416;6.730;2022-08-19T02:08:10;15.50;99.90
51982;DHT22;37998;53.416;6.730;2022-08-19T02:10:40;15.50;99.90
51982;DHT22;37998;53.416;6.730;2022-08-19T02:13:06;15.50;99.90
51982;DHT22;37998;53.416;6.730;2022-08-19T02:15:32;15.50;99.90
51982;DHT22;37998;53.416;6.730;2022-08-19T02:17:57;15.50;99.90
51982;DHT22;37998;53.416;6.730;2022-08-19T02:20:23;15.50;99.90
51982;DHT22;37998;53.416;6.730;2022-08-19T02:22:49;15.50;99.90
51982;DHT22;37998;53.416;6.730;2022-08-19T02:25:15;15.40;99.90
51982;DHT22;37998;53.416;6.730;2022-08-19T02:27:42;15.30;99.90
51982;DHT22;37998;53.416;6.730;2022-08-19T02:30:12;15.30;99.90
51982;DHT22;37998;53.416;6.730;2022-08-19T02:32:38;15.30;99.90
51982;DHT22;37998;53.416;6.730;2022-08-19T02:35:05;15.20;99.90
51982;DHT22;37998;53.416;6.730;2022-08-19T02:37:31;15.20;99.90
51982;DHT22;37998;53.416;6.730;2022-08-19T02:40:15;15.10;99.90
51982;DHT22;37998;53.416;6.730;2022-08-19T02:42:43;15.10;99.90
51982;DHT22;37998;53.416;6.730;2022-08-19T02:45:09;15.10;99.90
51982;DHT22;37998;53.416;6.730;2022-08-19T02:47:35;15.20;99.90
51982;DHT22;37998;53.416;6.730;2022-08-19T02:50:02;15.30;99.90
51982;DHT22;37998;53.416;6.730;2022-08-19T02:52:28;15.30;99.90
51982;DHT22;37998;53.416;6.730;2022-08-19T02:54:54;15.30;99.90
51982;DHT22;37998;53.416;6.730;2022-08-19T02:57:22;15.30;99.90
51982;DHT22;37998;53.416;6.730;2022-08-19T02:59:48;15.30;99.90
51982;DHT22;37998;53.416;6.730;2022-08-19T03:02:13;15.30;99.90
51982;DHT22;37998;53.416;6.730;2022-08-19T03:04:39;15.30;99.90
51982;DHT22;37998;53.416;6.730;2022-08-19T03:07:05;15.10;99.90
51982;DHT22;37998;53.416;6.730;2022-08-19T03:09:30;15.20;99.90
51982;DHT22;37998;53.416;6.730;2022-08-19T03:11:56;15.20;99.90
51982;DHT22;37998;53.416;6.730;2022-08-19T03:14:22;15.20;99.90
51982;DHT22;37998;53.416;6.730;2022-08-19T03:16:52;15.30;99.90
51982;DHT22;37998;53.416;6.730;2022-08-19T03:19:19;15.30;99.90
51982;DHT22;37998;53.416;6.730;2022-08-19T03:21:46;15.30;99.90
51982;DHT22;37998;53.416;6.730;2022-08-19T03:24:13;15.30;99.90
51982;DHT22;37998;53.416;6.730;2022-08-19T03:26:41;15.20;99.90
51982;DHT22;37998;53.416;6.730;2022-08-19T03:29:08;15.20;99.90
51982;DHT22;37998;53.416;6.730;2022-08-19T03:31:35;15.20;99.90
51982;DHT22;37998;53.416;6.730;2022-08-19T03:34:01;15.20;99.90
51982;DHT22;37998;53.416;6.730;2022-08-19T03:36:27;15.20;99.90
51982;DHT22;37998;53.416;6.730;2022-08-19T03:38:55;15.20;99.90
51982;DHT22;37998;53.416;6.730;2022-08-19T03:41:26;15.10;99.90
51982;DHT22;37998;53.416;6.730;2022-08-19T03:43:53;15.10;99.90
51982;DHT22;37998;53.416;6.730;2022-08-19T03:46:23;15.20;99.90
51982;DHT22;37998;53.416;6.730;2022-08-19T03:48:51;15.30;99.90
51982;DHT22;37998;53.416;6.730;2022-08-19T03:51:25;15.20;99.90
51982;DHT22;37998;53.416;6.730;2022-08-19T03:53:51;15.20;99.90
51982;DHT22;37998;53.416;6.730;2022-08-19T03:56:17;15.10;99.90
51982;DHT22;37998;53.416;6.730;2022-08-19T03:58:43;15.10;99.90
51982;DHT22;37998;53.416;6.730;2022-08-19T04:01:12;15.10;99.90
51982;DHT22;37998;53.416;6.730;2022-08-19T04:03:39;15.10;99.90
51982;DHT22;37998;53.416;6.730;2022-08-19T04:06:12;15.20;99.90
51982;DHT22;37998;53.416;6.730;2022-08-19T04:08:40;15.20;99.90
51982;DHT22;37998;53.416;6.730;2022-08-19T04:11:10;15.20;99.90
51982;DHT22;37998;53.416;6.730;2022-08-19T04:13:37;15.20;99.90
51982;DHT22;37998;53.416;6.730;2022-08-19T04:16:04;15.20;99.90
51982;DHT22;37998;53.416;6.730;2022-08-19T04:18:30;15.20;99.90
51982;DHT22;37998;53.416;6.730;2022-08-19T04:20:56;15.20;99.90
51982;DHT22;37998;53.416;6.730;2022-08-19T04:23:22;15.20;99.90
51982;DHT22;37998;53.416;6.730;2022-08-19T04:25:49;15.30;99.90
51982;DHT22;37998;53.416;6.730;2022-08-19T04:28:15;15.30;99.90
51982;DHT22;37998;53.416;6.730;2022-08-19T04:30:46;15.30;99.90
51982;DHT22;37998;53.416;6.730;2022-08-19T04:33:13;15.30;99.90
51982;DHT22;37998;53.416;6.730;2022-08-19T04:35:42;15.30;99.90
51982;DHT22;37998;53.416;6.730;2022-08-19T04:38:09;15.30;99.90
51982;DHT22;37998;53.416;6.730;2022-08-19T04:40:46;15.30;99.90
51982;DHT22;37998;53.416;6.730;2022-08-19T04:43:31;15.30;99.90
51982;DHT22;37998;53.416;6.730;2022-08-19T04:45:58;15.30;99.90
51982;DHT22;37998;53.416;6.730;2022-08-19T04:48:24;15.30;99.90
51982;DHT22;37998;53.416;6.730;2022-08-19T04:50:54;15.30;99.90
51982;DHT22;37998;53.416;6.730;2022-08-19T04:53:33;15.30;99.90
51982;DHT22;37998;53.416;6.730;2022-08-19T04:56:03;15.30;99.90
51982;DHT22;37998;53.416;6.730;2022-08-19T04:58:29;15.20;99.90
51982;DHT22;37998;53.416;6.730;2022-08-19T05:00:55;15.20;99.90
51982;DHT22;37998;53.416;6.730;2022-08-19T05:03:21;15.10;99.90
51982;DHT22;37998;53.416;6.730;2022-08-19T05:05:47;15.10;99.90
51982;DHT22;37998;53.416;6.730;2022-08-19T05:08:16;15.00;99.90
51982;DHT22;37998;53.416;6.730;2022-08-19T05:10:51;15.10;99.90
51982;DHT22;37998;53.416;6.730;2022-08-19T05:13:18;15.10;99.90
51982;DHT22;37998;53.416;6.730;2022-08-19T05:15:57;15.20;99.90
51982;DHT22;37998;53.416;6.730;2022-08-19T05:18:23;15.30;99.90
51982;DHT22;37998;53.416;6.730;2022-08-19T05:21:09;15.30;99.90
51982;DHT22;37998;53.416;6.730;2022-08-19T05:23:54;15.40;99.90
51982;DHT22;37998;53.416;6.730;2022-08-19T05:26:20;15.50;99.90
51982;DHT22;37998;53.416;6.730;2022-08-19T05:28:46;15.50;99.90
51982;DHT22;37998;53.416;6.730;2022-08-19T05:31:11;15.50;99.90
51982;DHT22;37998;53.416;6.730;2022-08-19T05:33:38;15.60;99.90
51982;DHT22;37998;53.416;6.730;2022-08-19T05:36:05;15.60;99.90
51982;DHT22;37998;53.416;6.730;2022-08-19T05:38:33;15.60;99.90
51982;DHT22;37998;53.416;6.730;2022-08-19T05:40:59;15.60;99.90
51982;DHT22;37998;53.416;6.730;2022-08-19T05:43:25;15.70;99.90
51982;DHT22;37998;53.416;6.730;2022-08-19T05:45:51;15.70;99.90
51982;DHT22;37998;53.416;6.730;2022-08-19T05:48:17;15.80;99.90
51982;DHT22;37998;53.416;6.730;2022-08-19T05:50:46;15.80;99.90
51982;DHT22;37998;53.416;6.730;2022-08-19T05:53:12;15.80;99.90
51982;DHT22;37998;53.416;6.730;2022-08-19T05:55:38;15.80;99.90
51982;DHT22;37998;53.416;6.730;2022-08-19T05:58:04;15.90;99.90
51982;DHT22;37998;53.416;6.730;2022-08-19T06:00:33;15.90;99.90
51982;DHT22;37998;53.416;6.730;2022-08-19T06:02:59;16.00;99.90
51982;DHT22;37998;53.416;6.730;2022-08-19T06:05:29;16.10;99.90
51982;DHT22;37998;53.416;6.730;2022-08-19T06:07:55;16.10;99.90
51982;DHT22;37998;53.416;6.730;2022-08-19T06:10:20;16.20;99.90
51982;DHT22;37998;53.416;6.730;2022-08-19T06:12:47;16.30;99.90
51982;DHT22;37998;53.416;6.730;2022-08-19T06:15:13;16.40;99.90
51982;DHT22;37998;53.416;6.730;2022-08-19T06:17:40;16.50;99.90
51982;DHT22;37998;53.416;6.730;2022-08-19T06:20:09;16.60;99.90
51982;DHT22;37998;53.416;6.730;2022-08-19T06:22:43;16.60;99.90
51982;DHT22;37998;53.416;6.730;2022-08-19T06:25:09;16.70;99.90
51982;DHT22;37998;53.416;6.730;2022-08-19T06:27:35;16.80;99.90
51982;DHT22;37998;53.416;6.730;2022-08-19T06:30:03;16.90;99.90
51982;DHT22;37998;53.416;6.730;2022-08-19T06:32:29;17.00;99.90
51982;DHT22;37998;53.416;6.730;2022-08-19T06:34:54;17.00;99.90
51982;DHT22;37998;53.416;6.730;2022-08-19T06:37:20;17.20;99.90
51982;DHT22;37998;53.416;6.730;2022-08-19T06:39:47;17.30;99.90
51982;DHT22;37998;53.416;6.730;2022-08-19T06:42:12;17.30;99.90
51982;DHT22;37998;53.416;6.730;2022-08-19T06:44:43;17.50;99.90
51982;DHT22;37998;53.416;6.730;2022-08-19T06:47:12;17.50;99.90
51982;DHT22;37998;53.416;6.730;2022-08-19T06:49:38;17.60;99.90
51982;DHT22;37998;53.416;6.730;2022-08-19T06:52:04;17.70;99.90
51982;DHT22;37998;53.416;6.730;2022-08-19T06:54:30;17.80;99.90
51982;DHT22;37998;53.416;6.730;2022-08-19T06:56:57;17.90;99.90
51982;DHT22;37998;53.416;6.730;2022-08-19T06:59:24;18.00;99.90
51982;DHT22;37998;53.416;6.730;2022-08-19T07:01:55;18.10;99.90
51982;DHT22;37998;53.416;6.730;2022-08-19T07:04:24;19.30;99.90
51982;DHT22;37998;53.416;6.730;2022-08-19T07:06:56;18.30;99.90
51982;DHT22;37998;53.416;6.730;2022-08-19T07:09:22;18.40;99.90
51982;DHT22;37998;53.416;6.730;2022-08-19T07:11:51;18.50;99.90
51982;DHT22;37998;53.416;6.730;2022-08-19T07:14:21;18.70;99.90
51982;DHT22;37998;53.416;6.730;2022-08-19T07:16:49;18.70;99.90
51982;DHT22;37998;53.416;6.730;2022-08-19T07:19:16;18.80;99.90
51982;DHT22;37998;53.416;6.730;2022-08-19T07:21:43;19.00;99.90
51982;DHT22;37998;53.416;6.730;2022-08-19T07:24:08;19.20;99.90
51982;DHT22;37998;53.416;6.730;2022-08-19T07:26:39;19.40;99.90
51982;DHT22;37998;53.416;6.730;2022-08-19T07:29:06;19.50;99.90
51982;DHT22;37998;53.416;6.730;2022-08-19T07:31:32;19.70;99.90
51982;DHT22;37998;53.416;6.730;2022-08-19T07:34:04;19.80;99.90
51982;DHT22;37998;53.416;6.730;2022-08-19T07:36:33;19.90;99.90
51982;DHT22;37998;53.416;6.730;2022-08-19T07:39:02;20.00;99.90
51982;DHT22;37998;53.416;6.730;2022-08-19T07:41:30;20.10;99.90
51982;DHT22;37998;53.416;6.730;2022-08-19T07:43:58;20.20;99.90
51982;DHT22;37998;53.416;6.730;2022-08-19T07:46:23;20.30;99.90
51982;DHT22;37998;53.416;6.730;2022-08-19T07:48:49;20.40;99.90
51982;DHT22;37998;53.416;6.730;2022-08-19T07:51:18;20.50;99.90
51982;DHT22;37998;53.416;6.730;2022-08-19T07:53:45;20.60;99.90
51982;DHT22;37998;53.416;6.730;2022-08-19T07:56:13;20.60;99.90
51982;DHT22;37998;53.416;6.730;2022-08-19T07:58:42;20.70;99.90
51982;DHT22;37998;53.416;6.730;2022-08-19T08:01:10;20.60;99.90
51982;DHT22;37998;53.416;6.730;2022-08-19T08:03:37;20.80;99.90
51982;DHT22;37998;53.416;6.730;2022-08-19T08:06:22;20.80;99.90
51982;DHT22;37998;53.416;6.730;2022-08-19T08:09:09;20.80;99.90
51982;DHT22;37998;53.416;6.730;2022-08-19T08:11:59;21.00;99.90
51982;DHT22;37998;53.416;6.730;2022-08-19T08:14:53;21.10;99.90
51982;DHT22;37998;53.416;6.730;2022-08-19T08:17:22;21.20;99.90
51982;DHT22;37998;53.416;6.730;2022-08-19T08:19:48;21.40;99.90
51982;DHT22;37998;53.416;6.730;2022-08-19T08:22:17;21.60;99.90
51982;DHT22;37998;53.416;6.730;2022-08-19T08:25:17;21.80;99.90
51982;DHT22;37998;53.416;6.730;2022-08-19T08:27:44;22.10;99.90
51982;DHT22;37998;53.416;6.730;2022-08-19T08:30:14;22.50;99.90
51982;DHT22;37998;53.416;6.730;2022-08-19T08:32:41;22.70;99.90
51982;DHT22;37998;53.416;6.730;2022-08-19T08:35:12;22.90;99.90
51982;DHT22;37998;53.416;6.730;2022-08-19T08:37:38;23.20;99.90
51982;DHT22;37998;53.416;6.730;2022-08-19T08:42:46;23.30;99.90
51982;DHT22;37998;53.416;6.730;2022-08-19T08:45:16;23.30;99.90
51982;DHT22;37998;53.416;6.730;2022-08-19T08:47:46;23.20;99.90
51982;DHT22;37998;53.416;6.730;2022-08-19T08:50:21;23.10;99.90
51982;DHT22;37998;53.416;6.730;2022-08-19T08:52:51;23.10;99.90
51982;DHT22;37998;53.416;6.730;2022-08-19T08:55:25;23.10;99.90
51982;DHT22;37998;53.416;6.730;2022-08-19T08:58:04;23.10;99.90
51982;DHT22;37998;53.416;6.730;2022-08-19T09:00:39;23.10;99.90
51982;DHT22;37998;53.416;6.730;2022-08-19T09:03:27;23.10;99.90
51982;DHT22;37998;53.416;6.730;2022-08-19T09:06:00;23.20;99.90
51982;DHT22;37998;53.416;6.730;2022-08-19T09:08:51;23.30;99.90
51982;DHT22;37998;53.416;6.730;2022-08-19T09:17:08;23.40;99.90
51982;DHT22;37998;53.416;6.730;2022-08-19T09:19:36;23.40;99.90
51982;DHT22;37998;53.416;6.730;2022-08-19T09:22:11;23.50;99.90
51982;DHT22;37998;53.416;6.730;2022-08-19T09:24:37;23.50;99.90
51982;DHT22;37998;53.416;6.730;2022-08-19T09:27:03;23.60;99.90
51982;DHT22;37998;53.416;6.730;2022-08-19T09:29:29;23.60;99.90
51982;DHT22;37998;53.416;6.730;2022-08-19T09:31:55;23.70;99.90
51982;DHT22;37998;53.416;6.730;2022-08-19T09:34:21;23.90;99.90
51982;DHT22;37998;53.416;6.730;2022-08-19T09:36:48;23.90;99.90
51982;DHT22;37998;53.416;6.730;2022-08-19T09:39:14;24.00;99.90
51982;DHT22;37998;53.416;6.730;2022-08-19T09:41:40;24.10;99.90
51982;DHT22;37998;53.416;6.730;2022-08-19T09:44:05;24.10;99.90
51982;DHT22;37998;53.416;6.730;2022-08-19T09:46:31;24.20;99.90
51982;DHT22;37998;53.416;6.730;2022-08-19T09:48:59;24.30;99.90
51982;DHT22;37998;53.416;6.730;2022-08-19T09:51:26;24.40;99.90
51982;DHT22;37998;53.416;6.730;2022-08-19T09:53:54;24.50;99.90
51982;DHT22;37998;53.416;6.730;2022-08-19T09:56:21;24.60;99.90
51982;DHT22;37998;53.416;6.730;2022-08-19T09:58:47;24.70;99.90
51982;DHT22;37998;53.416;6.730;2022-08-19T10:01:22;24.80;99.90
51982;DHT22;37998;53.416;6.730;2022-08-19T10:03:51;24.80;99.90
51982;DHT22;37998;53.416;6.730;2022-08-19T10:06:18;24.90;99.90
51982;DHT22;37998;53.416;6.730;2022-08-19T10:08:45;24.90;99.90
51982;DHT22;37998;53.416;6.730;2022-08-19T10:11:11;25.00;99.20
51982;DHT22;37998;53.416;6.730;2022-08-19T10:13:36;25.10;99.20
51982;DHT22;37998;53.416;6.730;2022-08-19T10:16:08;25.10;99.20
51982;DHT22;37998;53.416;6.730;2022-08-19T10:18:35;25.20;99.00
51982;DHT22;37998;53.416;6.730;2022-08-19T10:21:05;25.20;99.00
51982;DHT22;37998;53.416;6.730;2022-08-19T10:23:34;25.30;98.80
51982;DHT22;37998;53.416;6.730;2022-08-19T10:26:02;25.20;98.60
51982;DHT22;37998;53.416;6.730;2022-08-19T10:28:28;25.40;98.60
51982;DHT22;37998;53.416;6.730;2022-08-19T10:30:54;25.40;98.60
51982;DHT22;37998;53.416;6.730;2022-08-19T10:33:20;25.40;98.50
51982;DHT22;37998;53.416;6.730;2022-08-19T10:35:45;25.50;98.60
51982;DHT22;37998;53.416;6.730;2022-08-19T10:38:12;25.60;98.00
51982;DHT22;37998;53.416;6.730;2022-08-19T10:40:38;25.70;97.90
51982;DHT22;37998;53.416;6.730;2022-08-19T10:43:04;25.60;97.80
51982;DHT22;37998;53.416;6.730;2022-08-19T10:45:30;25.60;97.90
51982;DHT22;37998;53.416;6.730;2022-08-19T10:47:55;25.70;97.60
51982;DHT22;37998;53.416;6.730;2022-08-19T10:50:21;25.80;97.30
51982;DHT22;37998;53.416;6.730;2022-08-19T10:53:07;25.90;96.80
51982;DHT22;37998;53.416;6.730;2022-08-19T10:55:36;26.00;96.70
51982;DHT22;37998;53.416;6.730;2022-08-19T10:58:22;26.10;96.70
51982;DHT22;37998;53.416;6.730;2022-08-19T11:00:53;26.10;96.30
51982;DHT22;37998;53.416;6.730;2022-08-19T11:03:19;26.30;95.90
51982;DHT22;37998;53.416;6.730;2022-08-19T11:05:45;26.30;95.50
51982;DHT22;37998;53.416;6.730;2022-08-19T11:08:11;26.40;95.40
51982;DHT22;37998;53.416;6.730;2022-08-19T11:10:41;26.50;95.50
51982;DHT22;37998;53.416;6.730;2022-08-19T11:13:06;26.60;95.60
51982;DHT22;37998;53.416;6.730;2022-08-19T11:15:32;26.60;95.30
51982;DHT22;37998;53.416;6.730;2022-08-19T11:17:58;26.70;95.20
51982;DHT22;37998;53.416;6.730;2022-08-19T11:20:24;26.70;94.70
51982;DHT22;37998;53.416;6.730;2022-08-19T11:22:52;26.80;94.10
51982;DHT22;37998;53.416;6.730;2022-08-19T11:25:19;26.80;93.90
51982;DHT22;37998;53.416;6.730;2022-08-19T11:27:44;26.70;93.60
51982;DHT22;37998;53.416;6.730;2022-08-19T11:30:12;26.80;93.70
51982;DHT22;37998;53.416;6.730;2022-08-19T11:32:39;26.70;93.80
51982;DHT22;37998;53.416;6.730;2022-08-19T11:35:05;26.70;94.20
51982;DHT22;37998;53.416;6.730;2022-08-19T11:37:31;26.70;94.10
51982;DHT22;37998;53.416;6.730;2022-08-19T11:39:57;26.90;94.20
51982;DHT22;37998;53.416;6.730;2022-08-19T11:42:22;27.00;94.00
51982;DHT22;37998;53.416;6.730;2022-08-19T11:45:07;27.20;93.50
51982;DHT22;37998;53.416;6.730;2022-08-19T11:47:33;27.30;94.00
51982;DHT22;37998;53.416;6.730;2022-08-19T11:49:58;27.30;93.70
51982;DHT22;37998;53.416;6.730;2022-08-19T11:52:24;27.40;93.50
51982;DHT22;37998;53.416;6.730;2022-08-19T11:54:50;27.40;93.30
51982;DHT22;37998;53.416;6.730;2022-08-19T11:57:16;27.30;94.60
51982;DHT22;37998;53.416;6.730;2022-08-19T11:59:47;27.10;95.70
51982;DHT22;37998;53.416;6.730;2022-08-19T12:02:12;26.90;96.40
51982;DHT22;37998;53.416;6.730;2022-08-19T12:04:40;26.50;97.10
51982;DHT22;37998;53.416;6.730;2022-08-19T12:07:06;26.30;97.70
51982;DHT22;37998;53.416;6.730;2022-08-19T12:09:31;26.00;98.10
51982;DHT22;37998;53.416;6.730;2022-08-19T12:11:59;25.80;98.50
51982;DHT22;37998;53.416;6.730;2022-08-19T12:14:27;25.60;98.90
51982;DHT22;37998;53.416;6.730;2022-08-19T12:16:53;25.50;99.30
51982;DHT22;37998;53.416;6.730;2022-08-19T12:19:19;25.40;99.60
51982;DHT22;37998;53.416;6.730;2022-08-19T12:21:45;25.40;99.70
51982;DHT22;37998;53.416;6.730;2022-08-19T12:24:10;25.40;99.90
51982;DHT22;37998;53.416;6.730;2022-08-19T12:26:36;25.40;99.90
51982;DHT22;37998;53.416;6.730;2022-08-19T12:29:03;25.30;99.90
51982;DHT22;37998;53.416;6.730;2022-08-19T12:31:29;25.20;99.90
51982;DHT22;37998;53.416;6.730;2022-08-19T12:33:55;25.20;99.90
51982;DHT22;37998;53.416;6.730;2022-08-19T12:36:21;25.20;99.90
51982;DHT22;37998;53.416;6.730;2022-08-19T12:38:48;25.20;99.90
51982;DHT22;37998;53.416;6.730;2022-08-19T12:41:16;25.10;99.90
51982;DHT22;37998;53.416;6.730;2022-08-19T12:43:43;25.00;99.90
51982;DHT22;37998;53.416;6.730;2022-08-19T12:46:10;25.00;99.90
51982;DHT22;37998;53.416;6.730;2022-08-19T12:48:36;25.00;99.90
51982;DHT22;37998;53.416;6.730;2022-08-19T12:51:08;25.00;99.90
51982;DHT22;37998;53.416;6.730;2022-08-19T12:53:34;25.10;99.90
51982;DHT22;37998;53.416;6.730;2022-08-19T12:56:01;25.10;99.90
51982;DHT22;37998;53.416;6.730;2022-08-19T12:58:27;25.30;99.90
51982;DHT22;37998;53.416;6.730;2022-08-19T13:00:54;25.30;99.90
51982;DHT22;37998;53.416;6.730;2022-08-19T13:03:19;25.20;99.90
51982;DHT22;37998;53.416;6.730;2022-08-19T13:05:47;25.10;99.90
51982;DHT22;37998;53.416;6.730;2022-08-19T13:08:15;25.10;99.90
51982;DHT22;37998;53.416;6.730;2022-08-19T13:10:42;25.00;99.90
51982;DHT22;37998;53.416;6.730;2022-08-19T13:13:09;25.00;99.90
51982;DHT22;37998;53.416;6.730;2022-08-19T13:15:39;24.90;99.90
51982;DHT22;37998;53.416;6.730;2022-08-19T13:18:05;24.90;99.90
51982;DHT22;37998;53.416;6.730;2022-08-19T13:20:31;24.70;99.90
51982;DHT22;37998;53.416;6.730;2022-08-19T13:22:57;24.70;99.90
51982;DHT22;37998;53.416;6.730;2022-08-19T13:25:24;24.60;99.90
51982;DHT22;37998;53.416;6.730;2022-08-19T13:27:51;24.40;99.90
51982;DHT22;37998;53.416;6.730;2022-08-19T13:30:17;24.30;99.90
51982;DHT22;37998;53.416;6.730;2022-08-19T13:33:02;24.30;99.90
51982;DHT22;37998;53.416;6.730;2022-08-19T13:35:58;24.20;99.90
51982;DHT22;37998;53.416;6.730;2022-08-19T13:38:25;24.10;99.90
51982;DHT22;37998;53.416;6.730;2022-08-19T13:40:52;23.90;99.90
51982;DHT22;37998;53.416;6.730;2022-08-19T13:43:23;23.70;99.90
51982;DHT22;37998;53.416;6.730;2022-08-19T13:45:53;23.60;99.90
51982;DHT22;37998;53.416;6.730;2022-08-19T13:48:21;23.50;99.90
51982;DHT22;37998;53.416;6.730;2022-08-19T13:50:48;23.40;99.90
51982;DHT22;37998;53.416;6.730;2022-08-19T13:53:14;23.30;99.90
51982;DHT22;37998;53.416;6.730;2022-08-19T13:55:41;23.20;99.90
51982;DHT22;37998;53.416;6.730;2022-08-19T13:58:09;23.20;99.90
51982;DHT22;37998;53.416;6.730;2022-08-19T14:00:38;23.00;99.90
51982;DHT22;37998;53.416;6.730;2022-08-19T14:03:05;23.10;99.90
51982;DHT22;37998;53.416;6.730;2022-08-19T14:05:31;23.10;99.90
51982;DHT22;37998;53.416;6.730;2022-08-19T14:07:57;23.00;99.90
51982;DHT22;37998;53.416;6.730;2022-08-19T14:10:24;23.00;99.90
51982;DHT22;37998;53.416;6.730;2022-08-19T14:12:53;22.90;99.90
51982;DHT22;37998;53.416;6.730;2022-08-19T14:15:21;22.90;99.90
51982;DHT22;37998;53.416;6.730;2022-08-19T14:17:47;22.90;99.90
51982;DHT22;37998;53.416;6.730;2022-08-19T14:20:14;23.00;99.90
51982;DHT22;37998;53.416;6.730;2022-08-19T14:22:41;23.00;99.90
51982;DHT22;37998;53.416;6.730;2022-08-19T14:25:19;23.00;99.90
51982;DHT22;37998;53.416;6.730;2022-08-19T14:27:46;23.00;99.90
51982;DHT22;37998;53.416;6.730;2022-08-19T14:30:15;23.00;99.90
51982;DHT22;37998;53.416;6.730;2022-08-19T14:32:41;23.00;99.90
51982;DHT22;37998;53.416;6.730;2022-08-19T14:35:08;23.00;99.90
51982;DHT22;37998;53.416;6.730;2022-08-19T14:37:35;23.00;99.90
51982;DHT22;37998;53.416;6.730;2022-08-19T14:40:02;23.00;99.90
51982;DHT22;37998;53.416;6.730;2022-08-19T14:42:28;23.00;99.90
51982;DHT22;37998;53.416;6.730;2022-08-19T14:44:58;23.00;99.90
51982;DHT22;37998;53.416;6.730;2022-08-19T14:47:24;23.00;99.90
51982;DHT22;37998;53.416;6.730;2022-08-19T14:49:49;22.90;99.90
51982;DHT22;37998;53.416;6.730;2022-08-19T14:52:15;23.00;99.90
51982;DHT22;37998;53.416;6.730;2022-08-19T14:54:40;23.00;99.90
51982;DHT22;37998;53.416;6.730;2022-08-19T14:57:06;23.10;99.90
51982;DHT22;37998;53.416;6.730;2022-08-19T14:59:33;23.20;99.90
51982;DHT22;37998;53.416;6.730;2022-08-19T15:01:59;23.30;99.90
51982;DHT22;37998;53.416;6.730;2022-08-19T15:04:25;23.40;99.90
51982;DHT22;37998;53.416;6.730;2022-08-19T15:06:50;23.40;99.90
51982;DHT22;37998;53.416;6.730;2022-08-19T15:09:16;23.30;99.90
51982;DHT22;37998;53.416;6.730;2022-08-19T15:11:42;23.50;99.90
51982;DHT22;37998;53.416;6.730;2022-08-19T15:14:08;24.30;99.90
51982;DHT22;37998;53.416;6.730;2022-08-19T15:16:36;23.50;99.90
51982;DHT22;37998;53.416;6.730;2022-08-19T15:19:04;23.40;99.90
51982;DHT22;37998;53.416;6.730;2022-08-19T15:21:30;23.40;99.90
51982;DHT22;37998;53.416;6.730;2022-08-19T15:23:57;23.40;99.90
51982;DHT22;37998;53.416;6.730;2022-08-19T15:26:24;23.40;99.90
51982;DHT22;37998;53.416;6.730;2022-08-19T15:28:53;23.40;99.90
51982;DHT22;37998;53.416;6.730;2022-08-19T15:31:21;23.50;99.90
51982;DHT22;37998;53.416;6.730;2022-08-19T15:33:49;23.50;99.90
51982;DHT22;37998;53.416;6.730;2022-08-19T15:36:16;23.50;99.90
51982;DHT22;37998;53.416;6.730;2022-08-19T15:38:41;23.40;99.90
51982;DHT22;37998;53.416;6.730;2022-08-19T15:41:18;23.40;99.90
51982;DHT22;37998;53.416;6.730;2022-08-19T15:43:56;23.40;99.90
51982;DHT22;37998;53.416;6.730;2022-08-19T15:46:25;23.30;99.90